Airport Information

KGRF - Gray AAF

KGRF 160758Z 00000KT 10SM CLR M01/M01 A2977 RMK AO2A SLP088 400551031 $


  • General Information

  • Coordinates: N 47°4'45"/ W 122°34'50"
  • Location: N/A
  • Surveyed Elevation: 302 MSL

Operations

Flow Name Active Runways Conditions

Green background denotes normal operations.


Common Frequencies

Callsign Frequency Position Name

More at the Document Center


Charts